Time;durP1;ratioP1;P1;durP2;ratioP2;P2;SDS_P1;SDS_P2;PMS_P1;PMS_P2;Temp;Humidity;BMP_temperature;BMP_pressure;BME280_temperature;BME280_humidity;BME280_pressure;Samples;Min_cycle;Max_cycle;Signal;HPM_P1;HPM_P2
2023/09/29 00:01:56;;;;;;;;;13.40;13.40;;;;;17.45;69.71;99932.53;5093885;28;8814;-59
2023/09/29 00:04:23;;;;;;;;;18.60;17.20;;;;;17.45;69.59;99932.53;5093610;28;8826;-59
2023/09/29 00:06:51;;;;;;;;;15.40;15.40;;;;;17.44;69.80;99927.28;5093525;28;8826;-59
2023/09/29 00:09:19;;;;;;;;;14.20;14.20;;;;;17.43;69.65;99928.31;5094066;28;8919;-56
2023/09/29 00:11:48;;;;;;;;;16.80;15.20;;;;;17.39;69.63;99933.19;5093900;28;8824;-59
2023/09/29 00:14:16;;;;;;;;;9.00;7.80;;;;;17.36;69.78;99932.63;5095219;28;9507;-57
2023/09/29 00:16:43;;;;;;;;;16.40;15.60;;;;;17.35;69.97;99945.25;5097531;28;8830;-58
2023/09/29 00:19:12;;;;;;;;;15.00;12.80;;;;;17.37;69.99;99937.91;5099007;28;8957;-59
2023/09/29 00:21:39;;;;;;;;;12.20;12.20;;;;;17.40;69.77;99945.63;5097633;28;8857;-59
2023/09/29 00:24:07;;;;;;;;;13.40;13.40;;;;;17.44;69.70;99947.00;5097322;28;8869;-59
2023/09/29 00:26:34;;;;;;;;;13.80;12.60;;;;;17.48;69.96;99948.34;5097357;28;8825;-57
2023/09/29 00:29:02;;;;;;;;;12.00;12.00;;;;;17.54;69.57;99947.69;5097488;28;8857;-57
2023/09/29 00:31:32;;;;;;;;;12.40;11.20;;;;;17.59;69.77;99939.09;5097587;28;8828;-57
2023/09/29 00:33:59;;;;;;;;;15.40;13.40;;;;;17.62;69.58;99945.00;5097559;28;8874;-57
2023/09/29 00:36:27;;;;;;;;;9.60;9.60;;;;;17.63;69.56;99941.28;5097610;28;8837;-56
2023/09/29 00:38:55;;;;;;;;;13.80;13.40;;;;;17.65;69.71;99943.81;5097294;28;8810;-56
2023/09/29 00:41:23;;;;;;;;;13.60;12.20;;;;;17.67;69.60;99947.19;5097422;28;8826;-58
2023/09/29 00:43:51;;;;;;;;;13.00;12.00;;;;;17.68;69.74;99938.94;5097312;28;8872;-57
2023/09/29 00:46:19;;;;;;;;;15.00;14.60;;;;;17.70;69.87;99947.69;5097338;28;8822;-59
2023/09/29 00:48:48;;;;;;;;;14.80;14.80;;;;;17.70;69.68;99944.19;5097779;28;8834;-56
2023/09/29 00:51:15;;;;;;;;;14.60;13.40;;;;;17.68;69.69;99944.34;5097730;28;8818;-59
2023/09/29 00:53:43;;;;;;;;;17.60;15.00;;;;;17.66;69.74;99945.50;5097293;28;9515;-56
2023/09/29 00:56:12;;;;;;;;;12.00;12.00;;;;;17.65;69.96;99947.38;5097121;28;9798;-57
2023/09/29 00:58:39;;;;;;;;;10.00;8.20;;;;;17.62;69.65;99945.00;5097819;28;8845;-58
2023/09/29 01:01:08;;;;;;;;;13.00;12.80;;;;;17.59;69.97;99945.34;5097325;28;8830;-59
2023/09/29 01:03:35;;;;;;;;;12.40;12.20;;;;;17.53;69.78;99937.91;5096759;28;8931;-59
2023/09/29 01:06:03;;;;;;;;;11.40;10.40;;;;;17.49;70.20;99928.50;5097695;28;8826;-56
2023/09/29 01:08:31;;;;;;;;;11.40;10.80;;;;;17.44;70.09;99922.75;5097224;28;8872;-57
2023/09/29 01:10:59;;;;;;;;;12.40;11.60;;;;;17.39;70.24;99930.47;5096691;28;8902;-56
2023/09/29 01:13:26;;;;;;;;;16.40;15.60;;;;;17.34;70.32;99924.75;5096625;28;8849;-57
2023/09/29 01:15:54;;;;;;;;;15.20;14.60;;;;;17.28;70.42;99928.09;5097698;28;8855;-56
2023/09/29 01:18:22;;;;;;;;;11.00;10.00;;;;;17.24;70.87;99928.59;5096638;28;8846;-57
2023/09/29 01:20:50;;;;;;;;;9.80;9.80;;;;;17.18;71.17;99919.31;5097728;28;8830;-59
2023/09/29 01:23:20;;;;;;;;;10.40;9.60;;;;;17.17;71.17;99925.69;5096954;28;9475;-58
2023/09/29 01:25:47;;;;;;;;;9.40;7.00;;;;;17.19;71.25;99920.16;5095659;28;8822;-59
2023/09/29 01:28:15;;;;;;;;;9.40;9.20;;;;;17.28;70.81;99920.00;5096570;28;8836;-57
2023/09/29 01:30:43;;;;;;;;;9.00;9.00;;;;;17.38;70.32;99915.34;5096505;28;8852;-56
2023/09/29 01:33:12;;;;;;;;;6.20;6.20;;;;;17.47;70.46;99908.94;5096677;28;8842;-58
2023/09/29 01:35:43;;;;;;;;;6.60;6.00;;;;;17.58;69.93;99919.41;5096046;28;8822;-57
2023/09/29 01:38:11;;;;;;;;;6.60;6.60;;;;;17.69;69.79;99913.69;5096539;28;8856;-59
2023/09/29 01:40:40;;;;;;;;;9.00;9.00;;;;;17.76;69.64;99914.69;5096170;28;8860;-59
2023/09/29 01:43:07;;;;;;;;;7.00;7.00;;;;;17.82;69.20;99913.19;5096762;28;8856;-59
2023/09/29 01:45:37;;;;;;;;;9.40;7.40;;;;;17.88;69.08;99913.38;5095961;28;9545;-58
2023/09/29 01:48:05;;;;;;;;;8.60;8.60;;;;;17.92;69.29;99914.69;5096076;28;9656;-58
2023/09/29 01:50:33;;;;;;;;;9.20;8.60;;;;;17.98;69.42;99905.94;5096573;28;8871;-57
2023/09/29 01:53:02;;;;;;;;;6.80;6.00;;;;;18.04;68.74;99904.41;5095583;28;8826;-59
2023/09/29 01:55:30;;;;;;;;;7.40;7.00;;;;;18.08;68.90;99897.69;5096302;28;8881;-57
2023/09/29 01:57:57;;;;;;;;;10.00;9.20;;;;;18.12;68.97;99904.41;5096342;28;9566;-57
2023/09/29 02:00:28;;;;;;;;;7.40;7.40;;;;;18.15;68.65;99894.13;5095876;28;8826;-57
2023/09/29 02:02:56;;;;;;;;;12.20;11.20;;;;;18.17;68.87;99892.13;5095990;28;8956;-58
2023/09/29 02:05:24;;;;;;;;;9.20;9.20;;;;;18.19;69.25;99892.78;5096023;28;8838;-59
2023/09/29 02:07:52;;;;;;;;;8.60;7.40;;;;;18.21;68.53;99893.44;5096148;28;8888;-60
2023/09/29 02:10:20;;;;;;;;;10.00;7.80;;;;;18.22;68.68;99897.81;5095803;28;8825;-59
2023/09/29 02:12:48;;;;;;;;;8.60;7.00;;;;;18.23;69.13;99891.41;5096012;28;8833;-58
2023/09/29 02:15:15;;;;;;;;;9.80;9.80;;;;;18.24;69.00;99890.41;5095854;28;8953;-57
2023/09/29 02:17:43;;;;;;;;;3.40;3.00;;;;;18.25;68.89;99889.41;5095483;28;8830;-59
2023/09/29 02:20:14;;;;;;;;;7.00;6.40;;;;;18.25;68.98;99886.72;5095393;28;8850;-59
2023/09/29 02:22:41;;;;;;;;;10.00;10.00;;;;;18.26;69.20;99884.84;5095294;28;8830;-59
2023/09/29 02:25:11;;;;;;;;;7.00;7.00;;;;;18.26;68.90;99882.13;5095859;28;8818;-58
2023/09/29 02:27:38;;;;;;;;;8.20;7.80;;;;;18.25;68.89;99873.22;5095636;28;8822;-58
2023/09/29 02:30:08;;;;;;;;;8.20;8.20;;;;;18.24;69.26;99876.94;5095394;28;8814;-59
2023/09/29 02:32:36;;;;;;;;;8.60;7.80;;;;;18.24;69.22;99868.84;5095653;28;8826;-57
2023/09/29 02:35:04;;;;;;;;;6.60;6.60;;;;;18.25;69.20;99873.22;5095408;28;9488;-59
2023/09/29 02:37:31;;;;;;;;;6.00;6.00;;;;;18.31;68.74;99877.97;5095184;28;9578;-58
2023/09/29 02:39:59;;;;;;;;;0.60;0.60;;;;;18.36;69.10;99880.97;5096053;28;8849;-57
2023/09/29 02:42:26;;;;;;;;;7.00;7.00;;;;;18.40;69.00;99882.31;5095054;28;8826;-58
2023/09/29 02:44:54;;;;;;;;;6.60;6.60;;;;;18.42;68.91;99872.19;5095392;28;8818;-58
2023/09/29 02:47:21;;;;;;;;;7.20;7.00;;;;;18.44;68.47;99878.25;5095589;28;9503;-59
2023/09/29 02:49:49;;;;;;;;;7.00;6.80;;;;;18.45;68.81;99885.31;5094922;28;8826;-57
2023/09/29 02:52:17;;;;;;;;;6.60;6.00;;;;;18.46;68.99;99881.63;5094773;28;8830;-57
2023/09/29 02:54:44;;;;;;;;;6.00;6.00;;;;;18.47;68.88;99886.00;5094614;28;8826;-59
2023/09/29 02:57:14;;;;;;;;;4.80;4.80;;;;;18.46;68.69;99876.25;5094973;28;9499;-59
2023/09/29 02:59:42;;;;;;;;;7.40;7.00;;;;;18.44;69.14;99864.75;5094707;28;8838;-59
2023/09/29 03:02:09;;;;;;;;;6.00;6.00;;;;;18.44;69.08;99864.75;5095031;28;8918;-59
2023/09/29 03:04:39;;;;;;;;;6.60;6.60;;;;;18.43;68.84;99851.47;5094909;28;8834;-59
2023/09/29 03:07:09;;;;;;;;;3.80;3.80;;;;;18.41;69.09;99857.03;5094523;28;9529;-56
2023/09/29 03:09:37;;;;;;;;;6.20;4.80;;;;;18.39;69.57;99864.47;5095084;28;8839;-58
2023/09/29 03:12:04;;;;;;;;;8.60;7.00;;;;;18.35;69.35;99873.91;5095724;28;8846;-58
2023/09/29 03:14:32;;;;;;;;;6.00;4.80;;;;;18.30;69.44;99864.66;5094529;28;8818;-57
2023/09/29 03:17:00;;;;;;;;;6.00;6.00;;;;;18.28;69.69;99872.03;5095052;28;8944;-59
2023/09/29 03:19:28;;;;;;;;;6.40;5.20;;;;;18.27;69.77;99860.41;5094812;28;8844;-60
2023/09/29 03:21:55;;;;;;;;;6.20;6.20;;;;;18.28;69.11;99853.19;5094783;28;8854;-59
2023/09/29 03:24:23;;;;;;;;;6.80;6.80;;;;;18.29;69.41;99854.84;5094355;28;8814;-59
2023/09/29 03:26:51;;;;;;;;;6.80;6.60;;;;;18.27;69.27;99854.16;5094420;28;8818;-60
2023/09/29 03:29:19;;;;;;;;;7.40;7.00;;;;;18.27;69.79;99848.78;5094202;28;8826;-57
2023/09/29 03:31:46;;;;;;;;;6.20;6.20;;;;;18.24;69.16;99862.59;5094449;28;8830;-59
2023/09/29 03:34:14;;;;;;;;;10.00;9.00;;;;;18.21;69.39;99854.88;5094338;28;9573;-60
2023/09/29 03:36:41;;;;;;;;;6.00;6.00;;;;;18.18;69.57;99856.06;5094011;28;8872;-59
2023/09/29 03:39:09;;;;;;;;;6.40;6.20;;;;;18.18;70.02;99839.03;5094064;28;8849;-59
2023/09/29 03:41:37;;;;;;;;;5.20;5.20;;;;;18.21;69.60;99849.47;5093891;28;8899;-57
2023/09/29 03:44:05;;;;;;;;;6.60;6.60;;;;;18.22;69.66;99851.97;5093472;28;8964;-58
2023/09/29 03:46:32;;;;;;;;;6.20;6.20;;;;;18.24;69.59;99849.97;5093072;28;8837;-59
2023/09/29 03:49:00;;;;;;;;;6.20;6.20;;;;;18.27;69.77;99846.94;5094089;28;8944;-59
2023/09/29 03:51:30;;;;;;;;;5.20;5.20;;;;;18.29;69.24;99847.59;5097678;28;8822;-59
2023/09/29 03:53:57;;;;;;;;;6.40;6.00;;;;;18.36;69.48;99851.31;5098133;28;8856;-59
2023/09/29 03:56:25;;;;;;;;;3.20;3.00;;;;;18.41;69.24;99843.53;5097989;28;8852;-59
2023/09/29 03:58:53;;;;;;;;;9.40;7.80;;;;;18.46;69.62;99838.47;5097514;28;8838;-59
2023/09/29 04:01:21;;;;;;;;;7.00;6.00;;;;;18.51;69.47;99836.09;5098372;28;8822;-59
2023/09/29 04:03:49;;;;;;;;;9.40;9.00;;;;;18.55;69.28;99826.63;5097691;28;8834;-57
2023/09/29 04:06:17;;;;;;;;;8.80;7.20;;;;;18.59;69.06;99836.03;5097071;28;8833;-57
2023/09/29 04:08:46;;;;;;;;;7.00;7.00;;;;;18.61;69.06;99839.41;5097212;28;9515;-58
2023/09/29 04:11:14;;;;;;;;;7.00;6.60;;;;;18.64;68.85;99830.97;5097109;28;8825;-57
2023/09/29 04:13:43;;;;;;;;;6.20;6.00;;;;;18.69;68.64;99827.75;5097048;28;8880;-57
2023/09/29 04:16:10;;;;;;;;;6.00;6.00;;;;;18.71;68.93;99821.16;5097390;28;8927;-56
2023/09/29 04:18:38;;;;;;;;;6.60;5.60;;;;;18.74;69.19;99822.66;5097550;28;8849;-59
2023/09/29 04:21:07;;;;;;;;;6.80;6.80;;;;;18.77;68.39;99817.75;5097465;28;9484;-57
2023/09/29 04:23:35;;;;;;;;;3.00;2.60;;;;;18.78;68.69;99816.75;5097828;28;8822;-58
2023/09/29 04:26:02;;;;;;;;;6.60;6.00;;;;;18.81;68.57;99819.06;5097495;28;8897;-59
2023/09/29 04:28:30;;;;;;;;;6.00;6.00;;;;;18.83;68.66;99813.50;5097375;28;8837;-58
2023/09/29 04:30:57;;;;;;;;;8.20;7.00;;;;;18.85;68.85;99817.72;5096655;28;8826;-57
2023/09/29 04:33:25;;;;;;;;;6.60;6.00;;;;;18.87;68.49;99817.50;5097341;28;8886;-59
2023/09/29 04:35:53;;;;;;;;;6.60;6.60;;;;;18.90;68.72;99815.31;5097445;28;8810;-57
2023/09/29 04:38:21;;;;;;;;;5.60;5.60;;;;;18.93;68.81;99814.97;5097444;28;8818;-59
2023/09/29 04:40:48;;;;;;;;;6.00;6.00;;;;;18.95;68.91;99806.66;5097500;28;8919;-58
2023/09/29 04:43:16;;;;;;;;;3.40;3.40;;;;;18.97;68.22;99800.06;5097147;28;8826;-57
2023/09/29 04:45:44;;;;;;;;;4.00;4.00;;;;;19.01;68.43;99811.34;5096706;28;8830;-57
2023/09/29 04:48:12;;;;;;;;;6.80;6.60;;;;;19.04;68.57;99800.22;5096492;28;8845;-57
2023/09/29 04:50:39;;;;;;;;;5.20;5.20;;;;;19.07;68.62;99786.34;5097088;28;8865;-57
2023/09/29 04:53:07;;;;;;;;;4.40;4.00;;;;;19.09;68.39;99779.75;5096474;28;8869;-57
2023/09/29 04:55:35;;;;;;;;;4.00;4.00;;;;;19.12;68.52;99770.47;5096466;28;8853;-57
2023/09/29 04:58:03;;;;;;;;;5.80;4.00;;;;;19.15;67.99;99773.66;5096836;28;8830;-57
2023/09/29 05:00:30;;;;;;;;;4.60;4.20;;;;;19.16;68.36;99759.13;5096697;28;8814;-57
2023/09/29 05:03:00;;;;;;;;;6.40;5.40;;;;;19.18;68.07;99759.78;5096034;28;8822;-59
2023/09/29 05:05:28;;;;;;;;;4.00;4.00;;;;;19.19;68.13;99760.63;5096326;28;8895;-58
2023/09/29 05:07:56;;;;;;;;;3.00;3.00;;;;;19.19;68.29;99772.28;5096184;28;8830;-59
2023/09/29 05:10:24;;;;;;;;;4.20;4.00;;;;;19.21;68.25;99785.59;5096295;28;8868;-60
2023/09/29 05:12:51;;;;;;;;;5.00;3.80;;;;;19.22;68.61;99771.94;5095584;28;8834;-58
2023/09/29 05:15:19;;;;;;;;;3.40;3.00;;;;;19.23;68.12;99772.75;5095528;28;8873;-59
2023/09/29 05:17:47;;;;;;;;;3.00;3.00;;;;;19.22;68.11;99769.25;5095250;28;8829;-60
2023/09/29 05:20:19;;;;;;;;;6.80;5.40;;;;;19.23;68.18;99773.63;5095210;28;8829;-58
2023/09/29 05:22:46;;;;;;;;;6.00;5.80;;;;;19.24;68.22;99764.50;5094640;28;8834;-58
2023/09/29 05:25:14;;;;;;;;;3.80;3.80;;;;;19.25;68.18;99766.16;5094510;28;8842;-58
2023/09/29 05:27:42;;;;;;;;;3.60;3.60;;;;;19.26;68.16;99775.94;5094561;28;8868;-57
2023/09/29 05:30:09;;;;;;;;;6.80;5.40;;;;;19.25;68.59;99776.97;5094723;28;8818;-60
2023/09/29 05:32:37;;;;;;;;;4.00;3.60;;;;;19.25;68.19;99787.75;5094224;28;8956;-60
2023/09/29 05:35:05;;;;;;;;;4.00;4.00;;;;;19.27;68.72;99783.00;5094043;28;8862;-58
2023/09/29 05:37:33;;;;;;;;;4.00;4.00;;;;;19.32;68.34;99782.47;5093320;28;8838;-58
2023/09/29 05:40:03;;;;;;;;;7.40;5.40;;;;;19.35;67.93;99780.25;5093105;28;8826;-60
2023/09/29 05:42:31;;;;;;;;;6.00;6.00;;;;;19.38;68.15;99788.00;5093119;28;8822;-60
2023/09/29 05:45:18;;;;;;;;;5.00;4.00;;;;;19.38;68.10;99771.81;5093741;28;9015;-58
2023/09/29 05:47:47;;;;;;;;;4.60;4.60;;;;;19.40;68.52;99772.44;5093673;28;8829;-58
2023/09/29 05:50:15;;;;;;;;;3.00;3.00;;;;;19.43;68.55;99763.16;5093587;28;8837;-59
2023/09/29 05:52:46;;;;;;;;;6.00;6.00;;;;;19.45;67.90;99767.34;5093639;28;9515;-61
2023/09/29 05:55:34;;;;;;;;;6.00;6.00;;;;;19.46;68.09;99757.38;5092530;28;8846;-58
2023/09/29 05:58:02;;;;;;;;;7.60;5.40;;;;;19.46;67.60;99758.22;5092030;28;9144;-59
2023/09/29 06:00:30;;;;;;;;;3.80;3.80;;;;;19.46;67.64;99758.22;5091707;28;8868;-59
2023/09/29 06:02:58;;;;;;;;;4.20;4.20;;;;;19.50;67.97;99767.63;5089554;28;8838;-58
2023/09/29 06:05:25;;;;;;;;;4.40;4.40;;;;;19.52;68.38;99779.09;5088556;28;8848;-60
2023/09/29 06:07:53;;;;;;;;;4.20;4.20;;;;;19.56;68.27;99779.59;5088211;28;8838;-58
2023/09/29 06:10:25;;;;;;;;;7.00;6.00;;;;;19.58;67.97;99783.75;5088596;28;8830;-58
2023/09/29 06:12:52;;;;;;;;;7.00;7.00;;;;;19.59;68.07;99774.66;5087406;28;8833;-58
2023/09/29 06:15:20;;;;;;;;;4.00;3.60;;;;;19.65;67.70;99784.69;5088808;28;8892;-60
2023/09/29 06:17:48;;;;;;;;;2.80;2.80;;;;;19.69;68.08;99780.63;5090700;28;8968;-57
2023/09/29 06:20:15;;;;;;;;;4.80;4.00;;;;;19.71;67.85;99777.75;5091990;28;8976;-59
2023/09/29 06:22:43;;;;;;;;;4.00;4.00;;;;;19.75;67.86;99792.56;5091068;28;9192;-58
2023/09/29 06:25:11;;;;;;;;;4.20;3.60;;;;;19.77;67.53;99779.69;5091122;28;8841;-60
2023/09/29 06:27:39;;;;;;;;;5.60;4.80;;;;;19.80;67.80;99780.16;5091252;28;8876;-60
2023/09/29 06:30:06;;;;;;;;;4.00;4.00;;;;;19.86;67.53;99784.84;5092328;28;8833;-59
2023/09/29 06:32:34;;;;;;;;;5.20;5.20;;;;;19.92;67.39;99773.28;5092366;28;8876;-58
2023/09/29 06:35:02;;;;;;;;;5.20;5.20;;;;;20.01;67.14;99776.75;5092304;28;8830;-60
2023/09/29 06:37:30;;;;;;;;;6.80;4.00;;;;;20.09;67.23;99771.28;5092600;28;9504;-59
2023/09/29 06:39:58;;;;;;;;;4.00;4.00;;;;;20.19;66.51;99772.66;5092965;28;9670;-59
2023/09/29 06:42:25;;;;;;;;;4.80;4.60;;;;;20.25;66.85;99762.97;5093083;28;8822;-60
2023/09/29 06:44:53;;;;;;;;;4.00;2.00;;;;;20.28;66.51;99760.75;5093643;28;8818;-59
2023/09/29 06:47:21;;;;;;;;;4.00;4.00;;;;;20.30;66.74;99761.38;5093046;28;9124;-61
2023/09/29 06:49:49;;;;;;;;;3.60;3.60;;;;;20.33;66.77;99758.28;5092543;28;9550;-60
2023/09/29 06:52:16;;;;;;;;;2.00;2.00;;;;;20.34;67.01;99759.97;5092165;28;8853;-60
2023/09/29 06:54:44;;;;;;;;;2.00;2.00;;;;;20.34;66.10;99754.53;5093067;28;8834;-61
2023/09/29 06:57:12;;;;;;;;;3.60;3.60;;;;;20.32;67.01;99767.44;5093196;28;8837;-60
2023/09/29 06:59:40;;;;;;;;;4.40;4.00;;;;;20.34;67.16;99764.53;5092784;28;8844;-59
2023/09/29 07:02:07;;;;;;;;;2.80;2.80;;;;;20.34;67.07;99759.97;5093368;28;8830;-60
2023/09/29 07:04:36;;;;;;;;;3.20;3.20;;;;;20.36;66.67;99770.59;5093174;28;8842;-60
2023/09/29 07:07:03;;;;;;;;;2.00;2.00;;;;;20.41;66.61;99760.06;5093235;28;8826;-60
2023/09/29 07:09:31;;;;;;;;;4.80;4.00;;;;;20.47;66.80;99764.72;5091842;28;8833;-61
2023/09/29 07:11:59;;;;;;;;;4.00;4.00;;;;;20.53;66.27;99762.09;5091412;28;8948;-60
2023/09/29 07:14:27;;;;;;;;;4.80;4.40;;;;;20.62;66.34;99760.13;5091733;28;8822;-60
2023/09/29 07:16:55;;;;;;;;;4.40;4.40;;;;;20.73;66.17;99767.72;5091576;28;8830;-61
2023/09/29 07:19:23;;;;;;;;;4.40;4.00;;;;;20.82;65.83;99770.13;5090540;28;8931;-60
2023/09/29 07:21:54;;;;;;;;;4.40;3.60;;;;;20.92;65.53;99773.41;5090857;28;9300;-59
2023/09/29 07:24:22;;;;;;;;;5.00;4.00;;;;;20.99;65.59;99758.06;5091271;28;8838;-60
2023/09/29 07:26:51;;;;;;;;;5.00;4.40;;;;;21.03;65.40;99757.47;5091187;28;8826;-60
2023/09/29 07:29:19;;;;;;;;;3.20;3.20;;;;;21.07;65.71;99753.38;5092264;28;8848;-60
2023/09/29 07:31:48;;;;;;;;;1.40;1.40;;;;;21.13;65.28;99746.34;5091763;28;8853;-60
2023/09/29 07:34:16;;;;;;;;;3.60;3.60;;;;;21.18;65.38;99749.31;5090558;28;8861;-60
2023/09/29 07:36:44;;;;;;;;;4.00;4.00;;;;;21.22;65.62;99745.16;5090762;28;8964;-60
2023/09/29 07:39:13;;;;;;;;;4.80;4.80;;;;;21.27;65.21;99750.84;5091783;28;8830;-61
2023/09/29 07:41:41;;;;;;;;;5.40;4.00;;;;;21.32;65.63;99740.25;5090199;28;8834;-60
2023/09/29 07:44:09;;;;;;;;;4.20;4.20;;;;;21.36;64.94;99738.84;5090501;28;8906;-60
2023/09/29 07:46:37;;;;;;;;;4.00;4.00;;;;;21.42;65.14;99732.63;5090227;28;8952;-59
2023/09/29 07:49:04;;;;;;;;;4.20;3.60;;;;;21.50;65.57;99743.34;5091441;28;8911;-58
2023/09/29 07:51:32;;;;;;;;;5.80;4.60;;;;;21.55;65.14;99747.13;5091330;28;8825;-59
2023/09/29 07:54:00;;;;;;;;;3.20;3.20;;;;;21.62;65.04;99753.44;5091601;28;8857;-58
2023/09/29 07:56:29;;;;;;;;;4.00;4.00;;;;;21.70;64.87;99755.22;5090005;28;8856;-60
2023/09/29 07:58:58;;;;;;;;;5.00;5.00;;;;;21.75;64.74;99752.72;5090943;28;8826;-59
2023/09/29 08:01:25;;;;;;;;;5.80;5.00;;;;;21.80;64.94;99755.69;5090371;28;9467;-58
2023/09/29 08:03:53;;;;;;;;;4.00;4.00;;;;;21.88;64.81;99741.97;5089897;28;9535;-59
2023/09/29 08:06:22;;;;;;;;;5.00;4.00;;;;;21.92;64.43;99740.53;5090424;28;8818;-58
2023/09/29 08:08:52;;;;;;;;;5.00;5.00;;;;;22.00;64.37;99735.78;5090877;28;8834;-58
2023/09/29 08:11:21;;;;;;;;;5.60;4.60;;;;;22.10;64.41;99749.00;5090230;28;8830;-59
2023/09/29 08:13:52;;;;;;;;;5.00;5.00;;;;;22.23;64.17;99743.66;5091647;28;8834;-58
2023/09/29 08:16:20;;;;;;;;;4.00;4.00;;;;;22.47;63.94;99740.44;5092020;28;8841;-58
2023/09/29 08:18:47;;;;;;;;;5.00;5.00;;;;;22.71;63.17;99739.91;5092780;28;8822;-58
2023/09/29 08:21:15;;;;;;;;;1.00;1.00;;;;;22.93;62.55;99720.50;5092104;28;8891;-59
2023/09/29 08:23:43;;;;;;;;;5.40;5.20;;;;;23.13;62.43;99728.72;5090808;28;8907;-58
2023/09/29 08:26:11;;;;;;;;;5.40;5.00;;;;;23.26;62.64;99721.44;5090765;28;8834;-59
2023/09/29 08:28:39;;;;;;;;;4.80;4.40;;;;;23.36;62.34;99724.56;5090947;28;8956;-59
2023/09/29 08:31:06;;;;;;;;;5.20;5.20;;;;;23.32;62.52;99722.50;5090536;28;9215;-59
2023/09/29 08:33:34;;;;;;;;;8.00;7.20;;;;;23.25;62.82;99718.94;5090925;28;8850;-60
2023/09/29 08:36:17;;;;;;;;;5.00;5.00;;;;;23.44;62.32;99720.81;5091867;28;8838;-59
2023/09/29 08:38:45;;;;;;;;;4.00;4.00;;;;;23.81;61.79;99722.88;5093882;28;8910;-58
2023/09/29 08:41:12;;;;;;;;;4.00;4.00;;;;;24.19;61.06;99724.69;5094253;28;8853;-60
2023/09/29 08:43:40;;;;;;;;;4.80;4.60;;;;;24.43;60.39;99717.72;5093548;28;8834;-60
2023/09/29 08:46:18;;;;;;;;;1.60;1.60;;;;;24.48;60.37;99721.44;5093499;28;8920;-60
2023/09/29 08:48:46;;;;;;;;;5.00;4.40;;;;;24.55;60.23;99726.84;5093113;28;8964;-59
2023/09/29 08:51:14;;;;;;;;;7.40;7.40;;;;;24.65;60.20;99727.28;5093308;28;8830;-61
2023/09/29 08:53:42;;;;;;;;;5.00;4.20;;;;;24.76;59.67;99726.56;5093566;28;9534;-60
2023/09/29 08:56:14;;;;;;;;;4.60;4.60;;;;;24.89;59.63;99721.06;5092982;28;8842;-59
2023/09/29 08:58:42;;;;;;;;;3.60;3.00;;;;;25.00;59.33;99723.06;5093683;28;8833;-60
2023/09/29 09:01:10;;;;;;;;;4.60;4.60;;;;;25.06;59.69;99719.47;5093882;28;8818;-59
2023/09/29 09:03:37;;;;;;;;;6.00;6.00;;;;;25.14;58.97;99720.06;5093942;28;8869;-61
2023/09/29 09:06:05;;;;;;;;;6.80;5.20;;;;;25.16;58.88;99714.34;5093668;28;8865;-61
2023/09/29 09:08:33;;;;;;;;;6.20;5.40;;;;;25.04;59.32;99714.22;5092003;28;8826;-61
2023/09/29 09:11:02;;;;;;;;;5.20;5.20;;;;;24.91;59.51;99711.63;5091313;28;8879;-59
2023/09/29 09:13:30;;;;;;;;;9.00;7.00;;;;;24.78;59.91;99716.28;5092003;28;8949;-61
2023/09/29 09:15:58;;;;;;;;;5.60;5.00;;;;;24.73;60.19;99707.94;5092102;28;9020;-61
2023/09/29 09:18:27;;;;;;;;;5.60;5.40;;;;;24.82;59.87;99712.94;5091271;28;8857;-59
2023/09/29 09:20:55;;;;;;;;;5.00;5.00;;;;;24.94;59.93;99716.63;5091788;28;8834;-60
2023/09/29 09:23:23;;;;;;;;;5.80;5.00;;;;;24.98;59.16;99717.00;5092037;28;8830;-59
2023/09/29 09:25:53;;;;;;;;;6.20;5.00;;;;;24.94;59.43;99726.69;5091944;28;8818;-59
2023/09/29 09:28:22;;;;;;;;;3.00;3.00;;;;;24.85;59.94;99723.38;5092215;28;8926;-59
2023/09/29 09:30:51;;;;;;;;;5.60;5.60;;;;;24.76;59.89;99726.56;5092438;28;8822;-60
2023/09/29 09:33:21;;;;;;;;;5.00;5.00;;;;;24.66;60.66;99732.47;5092456;28;8876;-60
2023/09/29 09:35:49;;;;;;;;;5.00;5.00;;;;;24.54;60.70;99733.34;5093375;28;8963;-59
2023/09/29 09:38:17;;;;;;;;;5.20;5.20;;;;;24.46;61.28;99734.44;5093801;28;8833;-61
2023/09/29 09:40:45;;;;;;;;;5.60;5.00;;;;;24.40;61.08;99743.47;5095034;28;8884;-59
2023/09/29 09:43:15;;;;;;;;;5.80;3.80;;;;;24.38;61.36;99744.72;5093584;28;8935;-61
2023/09/29 09:45:44;;;;;;;;;5.40;5.00;;;;;24.34;60.81;99747.06;5093427;28;8836;-59
2023/09/29 09:48:16;;;;;;;;;4.40;4.40;;;;;24.29;60.71;99754.19;5092748;28;8830;-61
2023/09/29 09:50:46;;;;;;;;;5.00;5.00;;;;;24.22;61.37;99753.38;5093310;28;8885;-60
2023/09/29 09:53:14;;;;;;;;;5.00;5.00;;;;;24.20;61.20;99761.75;5093872;28;8830;-59
2023/09/29 09:55:42;;;;;;;;;6.20;5.00;;;;;24.17;61.29;99758.63;5093356;28;8825;-59
2023/09/29 09:58:12;;;;;;;;;4.40;4.40;;;;;24.17;61.15;99761.34;5092095;28;8907;-60
2023/09/29 10:00:41;;;;;;;;;3.40;3.40;;;;;24.14;61.09;99762.63;5091790;28;8914;-59
2023/09/29 10:03:12;;;;;;;;;5.40;5.40;;;;;24.15;61.67;99749.84;5092031;28;8830;-60
2023/09/29 10:05:46;;;;;;;;;6.00;5.40;;;;;24.24;61.76;99754.00;5091168;28;8834;-59
2023/09/29 10:08:15;;;;;;;;;5.20;5.20;;;;;24.49;60.66;99750.34;5092043;28;8952;-60
2023/09/29 10:10:42;;;;;;;;;2.80;2.80;;;;;24.77;59.74;99752.75;5091935;28;8822;-61
2023/09/29 10:13:15;;;;;;;;;6.00;6.00;;;;;25.33;58.39;99742.81;5091791;28;8927;-60
2023/09/29 10:15:43;;;;;;;;;6.00;6.00;;;;;25.60;58.13;99745.91;5091989;28;8883;-60
2023/09/29 10:18:11;;;;;;;;;6.00;5.60;;;;;25.72;58.38;99752.34;5091489;28;8834;-61
2023/09/29 10:20:39;;;;;;;;;7.00;6.00;;;;;25.71;57.61;99755.28;5091758;28;8822;-61
2023/09/29 10:23:07;;;;;;;;;7.20;7.20;;;;;25.65;57.72;99762.47;5091964;28;8825;-59
2023/09/29 10:25:35;;;;;;;;;7.00;7.00;;;;;25.58;58.10;99760.88;5092273;28;8911;-59
2023/09/29 10:28:06;;;;;;;;;6.80;6.80;;;;;25.48;58.10;99763.22;5091706;28;9514;-57
2023/09/29 10:30:34;;;;;;;;;6.00;5.00;;;;;25.45;58.21;99760.97;5090471;28;8839;-59
2023/09/29 10:33:05;;;;;;;;;5.00;5.00;;;;;25.39;58.64;99763.75;5090823;28;8888;-58
2023/09/29 10:35:33;;;;;;;;;4.60;4.60;;;;;25.37;58.94;99763.13;5090236;28;8833;-60
2023/09/29 10:38:07;;;;;;;;;5.80;5.20;;;;;25.46;58.58;99765.34;5090913;28;8972;-58
2023/09/29 10:40:34;;;;;;;;;5.80;5.60;;;;;25.55;58.38;99766.75;5091527;28;8854;-60
2023/09/29 10:43:03;;;;;;;;;7.00;7.00;;;;;25.55;58.52;99772.19;5092401;28;8830;-61
2023/09/29 10:45:36;;;;;;;;;9.20;7.20;;;;;25.66;58.00;99774.22;5091864;28;9349;-60
2023/09/29 10:48:05;;;;;;;;;6.80;6.40;;;;;25.81;58.01;99774.72;5091779;28;8830;-61
2023/09/29 10:50:34;;;;;;;;;8.60;7.40;;;;;25.79;57.72;99765.91;5091650;28;8822;-60
2023/09/29 10:53:03;;;;;;;;;7.60;7.00;;;;;25.74;58.42;99763.84;5091048;28;8938;-60
2023/09/29 10:55:31;;;;;;;;;9.20;9.00;;;;;25.86;57.40;99767.53;5092317;28;8818;-60
2023/09/29 10:57:59;;;;;;;;;9.80;8.20;;;;;26.05;57.60;99777.44;5090896;28;8866;-60
2023/09/29 11:00:27;;;;;;;;;7.40;7.40;;;;;26.10;57.55;99774.88;5090022;28;8834;-60
2023/09/29 11:02:55;;;;;;;;;9.80;9.80;;;;;25.91;58.06;99766.88;5089106;28;8850;-60
2023/09/29 11:05:23;;;;;;;;;9.00;7.60;;;;;25.60;57.99;99781.38;5091078;28;8880;-60
2023/09/29 11:07:54;;;;;;;;;10.00;9.40;;;;;25.26;59.12;99788.38;5091520;28;8842;-61
2023/09/29 11:10:22;;;;;;;;;10.00;10.00;;;;;24.95;59.87;99802.78;5091147;28;8838;-60
2023/09/29 11:12:50;;;;;;;;;10.80;9.40;;;;;24.66;60.76;99802.50;5090790;28;8838;-59
2023/09/29 11:15:18;;;;;;;;;9.60;9.00;;;;;24.40;60.98;99827.88;5090227;28;8834;-61
2023/09/29 11:17:46;;;;;;;;;7.00;6.60;;;;;24.21;61.93;99822.47;5091004;28;8845;-60
2023/09/29 11:20:16;;;;;;;;;9.00;9.00;;;;;24.10;62.15;99831.28;5090362;28;8834;-61
2023/09/29 11:22:45;;;;;;;;;4.20;4.20;;;;;24.12;61.60;99829.19;5091089;28;8836;-61
2023/09/29 11:25:15;;;;;;;;;9.00;7.00;;;;;24.09;61.23;99835.06;5090410;28;8854;-60
2023/09/29 11:27:43;;;;;;;;;5.80;5.20;;;;;23.95;62.09;99834.22;5089665;28;8841;-60
2023/09/29 11:30:13;;;;;;;;;5.40;5.20;;;;;23.85;62.30;99841.09;5088993;28;8837;-60
2023/09/29 11:32:41;;;;;;;;;4.20;4.20;;;;;23.75;61.92;99830.63;5090530;28;8888;-60
2023/09/29 11:35:13;;;;;;;;;5.00;5.00;;;;;23.70;62.49;99835.88;5090731;28;8830;-59
2023/09/29 11:37:42;;;;;;;;;3.00;2.00;;;;;23.69;62.11;99838.81;5091024;28;8908;-59
2023/09/29 11:40:11;;;;;;;;;5.00;4.40;;;;;23.67;62.17;99835.47;5091627;28;8853;-59
2023/09/29 11:42:39;;;;;;;;;3.80;3.00;;;;;23.67;62.16;99830.03;5091536;28;8841;-58
2023/09/29 11:45:08;;;;;;;;;4.20;3.80;;;;;23.79;61.83;99829.19;5090165;28;8860;-59